Time;durP1;ratioP1;P1;durP2;ratioP2;P2;SDS_P1;SDS_P2;PMS_P1;PMS_P2;Temp;Humidity;BMP_temperature;BMP_pressure;BME280_temperature;BME280_humidity;BME280_pressure;Samples;Min_cycle;Max_cycle;Signal;HPM_P1;HPM_P2
2023/09/01 00:00:24;;;;;;;3.47;0.80;;;15.40;99.90;;;;;;5091607;28;20704;-89
2023/09/01 00:02:51;;;;;;;1.95;0.68;;;15.40;99.90;;;;;;5091551;28;20031;-88
2023/09/01 00:05:17;;;;;;;6.00;1.35;;;15.40;99.90;;;;;;5092476;28;20020;-86
2023/09/01 00:07:42;;;;;;;2.50;0.90;;;15.40;99.90;;;;;;5092686;28;20028;-88
2023/09/01 00:10:08;;;;;;;3.85;0.70;;;15.40;99.90;;;;;;5091277;28;20066;-87
2023/09/01 00:12:34;;;;;;;;;;;15.40;99.90;;;;;;5092752;28;20475;-89
2023/09/01 00:14:59;;;;;;;3.28;1.17;;;15.40;99.90;;;;;;5092301;28;20007;-86
2023/09/01 00:17:25;;;;;;;1.83;0.93;;;15.30;99.90;;;;;;5092484;28;20020;-89
2023/09/01 00:19:51;;;;;;;4.25;1.20;;;15.30;99.90;;;;;;5091700;28;20043;-88
2023/09/01 00:22:16;;;;;;;3.38;0.68;;;15.20;99.90;;;;;;5092191;28;20114;-88
2023/09/01 00:24:42;;;;;;;4.78;0.90;;;15.20;99.90;;;;;;5092536;28;20150;-87
2023/09/01 00:27:07;;;;;;;3.10;0.98;;;15.20;99.90;;;;;;5098588;28;20032;-89
2023/09/01 00:29:34;;;;;;;1.67;0.70;;;15.10;99.90;;;;;;5091372;28;20042;-88
2023/09/01 00:32:00;;;;;;;1.73;0.73;;;15.10;99.90;;;;;;5095941;28;20021;-88
2023/09/01 00:34:29;;;;;;;3.13;0.90;;;15.10;99.90;;;;;;5095828;28;20024;-89
2023/09/01 00:36:54;;;;;;;3.97;0.80;;;15.10;99.90;;;;;;5095851;28;20031;-89
2023/09/01 00:39:20;;;;;;;2.13;0.60;;;15.20;99.90;;;;;;5095717;28;20455;-88
2023/09/01 00:41:46;;;;;;;5.30;1.00;;;15.30;99.90;;;;;;5095812;28;20061;-87
2023/09/01 00:44:14;;;;;;;2.33;0.93;;;15.40;99.90;;;;;;5094612;28;20027;-86
2023/09/01 00:46:46;;;;;;;3.15;1.10;;;15.40;99.90;;;;;;5094815;28;20020;-88
2023/09/01 00:49:12;;;;;;;1.45;0.60;;;15.50;99.90;;;;;;5094837;28;20028;-88
2023/09/01 00:51:38;;;;;;;2.10;0.98;;;15.50;99.90;;;;;;5095350;28;20063;-88
2023/09/01 00:54:05;;;;;;;5.10;0.93;;;15.60;99.90;;;;;;5093685;28;20028;-87
2023/09/01 00:56:31;;;;;;;4.95;1.17;;;15.60;99.90;;;;;;5095440;28;20016;-88
2023/09/01 00:58:57;;;;;;;2.33;0.70;;;15.70;99.90;;;;;;5095385;28;20024;-88
2023/09/01 01:01:22;;;;;;;1.80;0.60;;;15.70;99.90;;;;;;5095242;28;20170;-88
2023/09/01 01:03:51;;;;;;;4.93;0.80;;;15.80;99.90;;;;;;5094861;28;20031;-87
2023/09/01 01:06:39;;;;;;;3.35;0.93;;;15.70;99.90;;;;;;5093883;28;20081;-87
2023/09/01 01:09:27;;;;;;;3.55;0.85;;;15.70;99.90;;;;;;5094098;28;20099;-87
2023/09/01 01:12:07;;;;;;;2.03;0.90;;;15.80;99.90;;;;;;5095059;28;20073;-88
2023/09/01 01:14:55;;;;;;;2.05;0.70;;;15.80;99.90;;;;;;5093540;28;20127;-89
2023/09/01 01:17:21;;;;;;;3.35;0.80;;;15.90;99.90;;;;;;5095310;28;20016;-86
2023/09/01 01:19:58;;;;;;;1.90;0.82;;;15.80;99.90;;;;;;5093476;28;20024;-86
2023/09/01 01:22:41;;;;;;;1.42;0.60;;;15.90;99.90;;;;;;5095252;28;20040;-89
2023/09/01 01:25:12;;;;;;;1.73;0.82;;;15.90;99.90;;;;;;5094595;28;20032;-89
2023/09/01 01:27:38;;;;;;;3.55;1.33;;;15.80;99.90;;;;;;5092153;28;20500;-88
2023/09/01 01:30:09;;;;;;;2.63;0.68;;;15.80;99.90;;;;;;5093190;28;20103;-89
2023/09/01 01:32:36;;;;;;;1.95;0.75;;;15.80;99.90;;;;;;5094194;28;20016;-88
2023/09/01 01:35:10;;;;;;;2.15;0.80;;;15.80;99.90;;;;;;5094269;28;20081;-89
2023/09/01 01:38:10;;;;;;;2.25;0.60;;;15.80;99.90;;;;;;5094957;28;20056;-89
2023/09/01 01:40:38;;;;;;;2.35;0.73;;;15.70;99.90;;;;;;5093024;28;20418;-88
2023/09/01 01:43:06;;;;;;;5.22;0.70;;;15.70;99.90;;;;;;5094241;28;20039;-87
2023/09/01 01:45:33;;;;;;;3.40;0.90;;;15.60;99.90;;;;;;5093447;28;20232;-88
2023/09/01 01:47:59;;;;;;;1.70;0.80;;;15.50;99.90;;;;;;5094332;28;20473;-89
2023/09/01 01:50:24;;;;;;;2.45;1.02;;;15.40;99.90;;;;;;5093211;28;20024;-88
2023/09/01 01:52:50;;;;;;;3.67;1.00;;;15.30;99.90;;;;;;5093187;28;20032;-87
2023/09/01 01:55:16;;;;;;;1.92;0.88;;;15.30;99.90;;;;;;5094581;28;20095;-87
2023/09/01 01:57:41;;;;;;;3.75;1.10;;;15.20;99.90;;;;;;5092824;28;20472;-88
2023/09/01 02:00:11;;;;;;;3.30;0.70;;;15.20;99.90;;;;;;5093429;28;20024;-88
2023/09/01 02:02:41;;;;;;;6.55;1.08;;;15.20;99.90;;;;;;5094485;28;20028;-86
2023/09/01 02:05:08;;;;;;;2.10;0.73;;;15.20;99.90;;;;;;5105285;28;20020;-89
2023/09/01 02:07:34;;;;;;;3.15;0.98;;;15.10;99.90;;;;;;5094683;28;20036;-89
2023/09/01 02:10:00;;;;;;;5.05;1.00;;;15.10;99.90;;;;;;5094398;28;20028;-89
2023/09/01 02:12:26;;;;;;;6.55;0.95;;;15.10;99.90;;;;;;5094492;28;20564;-88
2023/09/01 02:14:51;;;;;;;1.67;0.80;;;15.00;99.90;;;;;;5092806;28;20510;-89
2023/09/01 02:17:17;;;;;;;2.85;0.80;;;14.90;99.90;;;;;;5094185;28;20519;-88
2023/09/01 02:19:43;;;;;;;2.17;1.02;;;14.80;99.90;;;;;;5094071;28;20039;-88
2023/09/01 02:22:08;;;;;;;3.55;0.93;;;14.80;99.90;;;;;;5093830;28;20040;-87
2023/09/01 02:24:34;;;;;;;3.85;0.88;;;14.70;99.90;;;;;;5093028;28;20634;-89
2023/09/01 02:27:00;;;;;;;5.03;0.98;;;14.60;99.90;;;;;;5093297;28;20032;-84
2023/09/01 02:29:26;;;;;;;2.10;1.00;;;14.50;99.90;;;;;;5092392;28;20149;-88
2023/09/01 02:31:53;;;;;;;3.75;0.88;;;14.50;99.90;;;;;;5092705;28;20072;-86
2023/09/01 02:34:19;;;;;;;2.08;0.85;;;14.50;99.90;;;;;;5093508;28;20031;-89
2023/09/01 02:36:45;;;;;;;4.68;1.88;;;14.50;99.90;;;;;;5093556;28;20024;-89
2023/09/01 02:39:11;;;;;;;;;;;14.30;99.90;;;;;;5092697;28;20535;-87
2023/09/01 02:41:37;;;;;;;3.25;1.15;;;14.30;99.90;;;;;;5093543;28;20203;-87
2023/09/01 02:44:03;;;;;;;3.15;0.77;;;14.20;99.90;;;;;;5091889;28;20052;-86
2023/09/01 02:46:29;;;;;;;2.63;1.17;;;14.10;99.90;;;;;;5092231;28;20055;-86
2023/09/01 02:48:55;;;;;;;;;;;14.10;99.90;;;;;;5093826;28;20012;-87
2023/09/01 02:51:20;;;;;;;2.28;0.95;;;14.10;99.90;;;;;;5092027;28;19904;-87
2023/09/01 02:53:46;;;;;;;;;;;14.00;99.90;;;;;;5091826;28;20408;-86
2023/09/01 02:56:12;;;;;;;1.77;0.90;;;14.00;99.90;;;;;;5091820;28;20001;-87
2023/09/01 02:58:38;;;;;;;2.90;1.13;;;14.00;99.90;;;;;;5092936;28;20427;-86
2023/09/01 03:01:07;;;;;;;;;;;13.90;99.90;;;;;;5093123;28;20061;-86
2023/09/01 03:03:32;;;;;;;4.35;1.30;;;13.90;99.90;;;;;;5091849;28;19999;-88
2023/09/01 03:05:58;;;;;;;;;;;13.90;99.90;;;;;;5093425;28;20119;-88
2023/09/01 03:08:23;;;;;;;3.53;0.98;;;13.80;99.90;;;;;;5092343;28;19904;-88
2023/09/01 03:10:49;;;;;;;;;;;13.80;99.90;;;;;;5092004;28;20032;-85
2023/09/01 03:13:15;;;;;;;2.30;0.90;;;13.80;99.90;;;;;;5091596;28;19961;-87
2023/09/01 03:15:41;;;;;;;2.45;0.85;;;13.80;99.90;;;;;;5091517;28;20048;-88
2023/09/01 03:18:09;;;;;;;2.40;0.90;;;13.70;99.90;;;;;;5095010;28;20024;-89
2023/09/01 03:20:35;;;;;;;3.65;1.00;;;13.70;99.90;;;;;;5092679;28;20023;-90
2023/09/01 03:23:00;;;;;;;3.67;1.30;;;13.70;99.90;;;;;;5092514;28;20461;-90
2023/09/01 03:25:26;;;;;;;;;;;13.80;99.90;;;;;;5092738;28;20116;-86
2023/09/01 03:27:52;;;;;;;5.50;1.27;;;13.80;99.90;;;;;;5092426;28;19911;-89
2023/09/01 03:30:17;;;;;;;;;;;13.80;99.90;;;;;;5093162;28;20046;-86
2023/09/01 03:32:43;;;;;;;3.50;1.10;;;13.90;99.90;;;;;;5092553;28;19916;-89
2023/09/01 03:35:09;;;;;;;;;;;14.00;99.90;;;;;;5091755;28;20081;-87
2023/09/01 03:37:35;;;;;;;3.05;1.45;;;14.00;99.90;;;;;;5093890;28;19908;-86
2023/09/01 03:40:01;;;;;;;2.15;0.80;;;14.10;99.90;;;;;;5092906;28;20048;-88
2023/09/01 03:42:26;;;;;;;;;;;14.10;99.90;;;;;;5094768;28;20059;-87
2023/09/01 03:44:52;;;;;;;6.22;1.20;;;14.10;99.90;;;;;;5092288;28;20407;-86
2023/09/01 03:47:18;;;;;;;4.05;1.17;;;14.10;99.90;;;;;;5090011;28;20032;-83
2023/09/01 03:49:44;;;;;;;1.85;0.70;;;14.10;99.90;;;;;;5089681;28;20534;-78
2023/09/01 03:52:09;;;;;;;;;;;14.10;99.90;;;;;;5089804;28;20039;-80
2023/09/01 03:54:35;;;;;;;3.40;1.02;;;14.10;99.90;;;;;;5089687;28;19935;-83
2023/09/01 03:57:01;;;;;;;6.10;1.48;;;14.00;99.90;;;;;;5088101;28;20072;-83
2023/09/01 03:59:26;;;;;;;;;;;14.00;99.90;;;;;;5089795;28;20031;-83
2023/09/01 04:01:52;;;;;;;2.72;1.15;;;13.90;99.90;;;;;;5089443;28;19919;-82
2023/09/01 04:04:18;;;;;;;2.05;0.82;;;13.90;99.90;;;;;;5089582;28;20401;-80
2023/09/01 04:06:44;;;;;;;3.17;1.20;;;13.90;99.90;;;;;;5088954;28;20028;-83
2023/09/01 04:09:11;;;;;;;3.30;1.10;;;13.90;99.90;;;;;;5088338;28;20031;-80
2023/09/01 04:11:37;;;;;;;3.95;1.05;;;13.90;99.90;;;;;;5093170;28;20028;-81
2023/09/01 04:14:02;;;;;;;;;;;13.90;99.90;;;;;;5092447;28;20201;-83
2023/09/01 04:16:28;;;;;;;3.67;1.23;;;13.80;99.90;;;;;;5093095;28;19920;-81
2023/09/01 04:18:55;;;;;;;4.07;0.98;;;13.80;99.90;;;;;;5093244;28;20085;-83
2023/09/01 04:21:21;;;;;;;6.60;1.50;;;13.80;99.90;;;;;;5093485;28;20035;-82
2023/09/01 04:23:47;;;;;;;3.20;1.20;;;13.80;99.90;;;;;;5093304;28;20024;-83
2023/09/01 04:26:13;;;;;;;;;;;13.90;99.90;;;;;;5093566;28;20036;-83
2023/09/01 04:28:39;;;;;;;3.28;1.02;;;13.90;99.90;;;;;;5093048;28;19973;-81
2023/09/01 04:31:20;;;;;;;;;;;13.90;99.90;;;;;;5093446;28;20036;-79
2023/09/01 04:33:46;;;;;;;5.43;0.90;;;13.90;99.90;;;;;;5092836;28;19912;-80
2023/09/01 04:36:12;;;;;;;;;;;13.90;99.90;;;;;;5091822;28;20028;-80
2023/09/01 04:38:37;;;;;;;2.38;0.95;;;14.00;99.90;;;;;;5092686;28;19908;-83
2023/09/01 04:41:03;;;;;;;;;;;14.00;99.90;;;;;;5093132;28;20028;-83
2023/09/01 04:43:28;;;;;;;3.58;1.60;;;14.10;99.90;;;;;;5092713;28;20575;-83
2023/09/01 04:45:54;;;;;;;;;;;14.30;99.90;;;;;;5091800;28;20446;-81
2023/09/01 04:48:20;;;;;;;6.75;0.82;;;14.50;99.90;;;;;;5092329;28;20433;-82
2023/09/01 04:50:47;;;;;;;2.45;1.05;;;14.90;99.90;;;;;;5092461;28;20027;-80
2023/09/01 04:53:14;;;;;;;6.45;1.63;;;15.30;99.90;;;;;;5092183;28;20036;-79
2023/09/01 04:55:40;;;;;;;4.13;0.95;;;15.70;99.90;;;;;;5092662;28;20043;-80
2023/09/01 04:58:05;;;;;;;4.97;1.20;;;16.00;99.90;;;;;;5092145;28;20484;-79
2023/09/01 05:00:31;;;;;;;4.32;1.58;;;16.20;99.90;;;;;;5092160;28;20036;-81
2023/09/01 05:02:57;;;;;;;2.65;1.17;;;16.40;99.90;;;;;;5091065;28;20027;-80
2023/09/01 05:05:24;;;;;;;1.83;0.90;;;16.60;99.90;;;;;;5090858;28;20035;-81
2023/09/01 05:07:50;;;;;;;2.78;1.30;;;16.70;99.90;;;;;;5091762;28;20043;-82
2023/09/01 05:10:16;;;;;;;3.90;1.20;;;16.80;99.90;;;;;;5091936;28;20020;-83
2023/09/01 05:12:41;;;;;;;2.33;0.80;;;16.80;99.90;;;;;;5091744;28;20070;-83
2023/09/01 05:15:08;;;;;;;4.25;0.85;;;16.90;99.90;;;;;;5091892;28;20056;-83
2023/09/01 05:17:33;;;;;;;3.33;0.80;;;17.00;99.90;;;;;;5091447;28;20443;-81
2023/09/01 05:19:59;;;;;;;4.40;0.70;;;17.00;99.90;;;;;;5091785;28;20493;-83
2023/09/01 05:22:25;;;;;;;2.45;0.82;;;17.10;99.90;;;;;;5090857;28;20040;-80
2023/09/01 05:24:53;;;;;;;2.08;0.80;;;17.20;99.90;;;;;;5092145;28;20027;-81
2023/09/01 05:27:19;;;;;;;1.90;0.60;;;17.30;99.90;;;;;;5091532;28;20496;-80
2023/09/01 05:29:47;;;;;;;2.55;1.02;;;17.40;99.90;;;;;;5091601;28;20016;-81
2023/09/01 05:32:13;;;;;;;5.75;1.23;;;17.50;99.90;;;;;;5090106;28;20024;-82
2023/09/01 05:34:39;;;;;;;1.95;1.00;;;17.70;99.90;;;;;;5091468;28;20442;-80
2023/09/01 05:37:04;;;;;;;3.92;0.93;;;17.80;99.90;;;;;;5091527;28;20451;-81
2023/09/01 05:39:30;;;;;;;1.90;0.80;;;17.90;99.90;;;;;;5091347;28;20055;-81
2023/09/01 05:41:56;;;;;;;1.95;0.80;;;18.10;99.90;;;;;;5091127;28;20519;-81
2023/09/01 05:44:21;;;;;;;2.92;0.80;;;18.20;99.90;;;;;;5091341;28;20389;-81
2023/09/01 05:46:47;;;;;;;5.38;0.77;;;18.20;99.90;;;;;;5091387;28;20031;-80
2023/09/01 05:49:13;;;;;;;3.95;0.85;;;18.30;99.90;;;;;;5091261;28;20653;-81
2023/09/01 05:51:38;;;;;;;4.13;0.90;;;18.30;99.90;;;;;;5091314;28;20027;-81
2023/09/01 05:54:04;;;;;;;4.95;1.20;;;18.30;99.90;;;;;;5090081;28;20036;-81
2023/09/01 05:56:30;;;;;;;7.28;1.67;;;18.40;99.90;;;;;;5091192;28;20034;-79
2023/09/01 05:58:55;;;;;;;11.85;1.08;;;18.50;99.90;;;;;;5090940;28;20021;-81
2023/09/01 06:01:21;;;;;;;2.92;0.90;;;18.60;99.90;;;;;;5090922;28;20039;-80
2023/09/01 06:03:47;;;;;;;5.18;0.80;;;18.70;99.90;;;;;;5089755;28;20398;-80
2023/09/01 06:06:12;;;;;;;5.90;1.02;;;18.80;99.90;;;;;;5090895;28;20073;-81
2023/09/01 06:08:38;;;;;;;3.90;1.02;;;19.00;99.90;;;;;;5090586;28;20034;-80
2023/09/01 06:11:05;;;;;;;3.17;0.60;;;19.20;99.90;;;;;;5090872;28;20020;-80
2023/09/01 06:13:31;;;;;;;2.60;0.80;;;19.40;99.90;;;;;;5090919;28;20016;-81
2023/09/01 06:15:56;;;;;;;5.38;1.10;;;19.60;99.90;;;;;;5089002;28;20054;-78
2023/09/01 06:18:22;;;;;;;2.67;1.00;;;19.70;99.90;;;;;;5090517;28;20115;-80
2023/09/01 06:20:48;;;;;;;4.50;1.25;;;20.00;99.90;;;;;;5089219;28;20131;-80
2023/09/01 06:23:13;;;;;;;3.65;0.80;;;20.30;99.90;;;;;;5090628;28;20581;-80
2023/09/01 06:25:39;;;;;;;2.65;0.70;;;20.50;99.90;;;;;;5090652;28;20540;-80
2023/09/01 06:28:06;;;;;;;3.13;0.90;;;20.50;99.80;;;;;;5089501;28;20055;-80
2023/09/01 06:30:31;;;;;;;3.55;1.05;;;20.80;99.10;;;;;;5090248;28;20066;-79
2023/09/01 06:32:57;;;;;;;2.72;0.85;;;21.30;98.80;;;;;;5090589;28;20028;-79
2023/09/01 06:35:23;;;;;;;1.55;0.60;;;22.00;97.40;;;;;;5090366;28;20034;-79
2023/09/01 06:37:48;;;;;;;1.88;0.70;;;22.90;94.70;;;;;;5090381;28;20518;-80
2023/09/01 06:40:14;;;;;;;1.75;0.80;;;23.50;90.80;;;;;;5088978;28;20038;-80
2023/09/01 06:42:39;;;;;;;1.67;0.80;;;24.30;83.60;;;;;;5090135;28;20040;-80
2023/09/01 06:45:06;;;;;;;2.38;0.95;;;24.80;75.80;;;;;;5090150;28;20027;-79
2023/09/01 06:47:31;;;;;;;3.03;1.00;;;25.20;72.30;;;;;;5090141;28;20027;-80
2023/09/01 06:49:57;;;;;;;3.05;1.23;;;25.20;69.10;;;;;;5089827;28;20074;-80
2023/09/01 06:52:23;;;;;;;2.30;1.15;;;25.20;68.40;;;;;;5089902;28;20107;-80
2023/09/01 06:54:50;;;;;;;4.97;1.08;;;25.20;67.20;;;;;;5089816;28;20070;-80
2023/09/01 06:57:15;;;;;;;3.83;1.33;;;25.20;66.10;;;;;;5088502;28;20407;-80
2023/09/01 06:59:41;;;;;;;2.40;0.90;;;25.00;66.30;;;;;;5088821;28;20024;-80
2023/09/01 07:02:07;;;;;;;4.72;1.00;;;24.80;67.20;;;;;;5090279;28;20079;-80
2023/09/01 07:04:32;;;;;;;2.20;0.90;;;24.80;67.30;;;;;;5088198;28;20027;-79
2023/09/01 07:06:59;;;;;;;2.05;0.82;;;24.80;68.20;;;;;;5089675;28;20032;-80
2023/09/01 07:09:25;;;;;;;3.65;0.85;;;24.80;65.30;;;;;;5089480;28;20482;-79
2023/09/01 07:11:51;;;;;;;10.02;1.52;;;25.00;63.90;;;;;;5088272;28;20174;-80
2023/09/01 07:14:16;;;;;;;2.45;1.08;;;25.40;63.60;;;;;;5088108;28;20423;-79
2023/09/01 07:16:42;;;;;;;2.00;0.95;;;25.80;62.80;;;;;;5088473;28;20048;-79
2023/09/01 07:19:07;;;;;;;1.67;0.82;;;26.10;61.70;;;;;;5088264;28;20024;-79
2023/09/01 07:21:33;;;;;;;0.95;0.60;;;26.10;61.90;;;;;;5089409;28;20413;-79
2023/09/01 07:23:59;;;;;;;2.63;0.90;;;26.00;60.60;;;;;;5089537;28;20450;-79
2023/09/01 07:26:24;;;;;;;2.45;0.70;;;26.10;59.70;;;;;;5089487;28;20035;-80
2023/09/01 07:28:50;;;;;;;1.80;0.93;;;26.10;58.50;;;;;;5088026;28;20024;-80
2023/09/01 07:31:16;;;;;;;3.40;0.73;;;26.10;59.90;;;;;;5089362;28;20069;-81
2023/09/01 07:33:42;;;;;;;3.30;0.95;;;26.20;59.50;;;;;;5088764;28;20020;-80
2023/09/01 07:36:11;;;;;;;1.52;0.60;;;26.80;58.60;;;;;;5089331;28;20586;-81
2023/09/01 07:38:38;;;;;;;1.52;0.80;;;27.30;57.30;;;;;;5094760;28;20513;-81
2023/09/01 07:41:03;;;;;;;4.18;0.70;;;27.80;55.40;;;;;;5094315;28;20047;-81
2023/09/01 07:43:30;;;;;;;3.60;0.80;;;28.20;54.40;;;;;;5105095;28;20038;-81
2023/09/01 07:45:56;;;;;;;3.08;1.00;;;28.70;53.20;;;;;;5102859;28;20103;-81
2023/09/01 07:48:22;;;;;;;1.65;0.80;;;28.80;51.90;;;;;;5102323;28;20485;-82
2023/09/01 07:50:48;;;;;;;1.60;0.90;;;28.80;52.80;;;;;;5106535;28;20024;-81
2023/09/01 07:53:14;;;;;;;1.40;0.75;;;28.70;52.40;;;;;;5098371;28;20030;-81
2023/09/01 07:55:39;;;;;;;2.15;0.80;;;28.50;52.50;;;;;;5103998;28;20106;-81
2023/09/01 07:58:05;;;;;;;3.75;0.70;;;28.50;51.30;;;;;;5093245;28;20032;-81
2023/09/01 08:00:31;;;;;;;6.55;1.25;;;28.40;51.20;;;;;;5103063;28;20050;-81
2023/09/01 08:02:57;;;;;;;1.90;0.88;;;28.60;50.00;;;;;;5110934;28;20032;-81
2023/09/01 08:05:23;;;;;;;2.17;0.95;;;28.40;50.20;;;;;;5110189;28;20077;-81
2023/09/01 08:07:51;;;;;;;2.35;1.10;;;28.40;50.90;;;;;;5102688;28;20028;-81
2023/09/01 08:10:17;;;;;;;1.35;0.80;;;28.70;51.50;;;;;;5102552;28;20019;-80
2023/09/01 08:12:43;;;;;;;2.40;1.08;;;29.40;50.00;;;;;;5103143;28;20046;-81
2023/09/01 08:15:09;;;;;;;2.00;1.02;;;29.70;48.90;;;;;;5103626;28;20515;-81
2023/09/01 08:17:35;;;;;;;6.30;1.00;;;30.40;47.70;;;;;;5109237;28;20020;-81
2023/09/01 08:20:03;;;;;;;2.20;0.80;;;30.80;47.00;;;;;;5092904;28;20035;-80
2023/09/01 08:22:30;;;;;;;2.13;1.08;;;31.40;45.70;;;;;;5092758;28;20031;-81
2023/09/01 08:24:55;;;;;;;1.60;0.85;;;32.10;45.20;;;;;;5093179;28;20032;-81
2023/09/01 08:27:21;;;;;;;1.00;0.60;;;32.90;42.90;;;;;;5092638;28;20055;-80
2023/09/01 08:29:47;;;;;;;1.58;0.82;;;33.20;42.90;;;;;;5092795;28;20024;-80
2023/09/01 08:32:13;;;;;;;3.50;0.75;;;33.10;42.30;;;;;;5092892;28;20115;-81
2023/09/01 08:34:39;;;;;;;2.00;0.75;;;32.50;40.80;;;;;;5092748;28;20111;-81
2023/09/01 08:37:05;;;;;;;6.82;1.05;;;32.10;40.90;;;;;;5092592;28;20035;-81
2023/09/01 08:39:32;;;;;;;2.05;0.80;;;31.50;42.50;;;;;;5093027;28;20382;-81
2023/09/01 08:41:58;;;;;;;6.03;0.82;;;31.00;43.40;;;;;;5092710;28;20055;-81
2023/09/01 08:44:27;;;;;;;1.02;0.60;;;30.60;44.60;;;;;;5092506;28;20046;-80
2023/09/01 08:46:55;;;;;;;1.63;0.70;;;30.20;44.20;;;;;;5091178;28;20035;-80
2023/09/01 08:49:23;;;;;;;1.77;0.70;;;29.60;44.50;;;;;;5092379;28;20035;-81
2023/09/01 08:51:52;;;;;;;1.20;0.63;;;29.10;45.60;;;;;;5091406;28;20028;-79
2023/09/01 08:54:18;;;;;;;6.35;0.80;;;28.60;46.90;;;;;;5090916;28;20020;-79
2023/09/01 08:56:44;;;;;;;4.40;0.60;;;28.10;48.50;;;;;;5092080;28;20055;-80
2023/09/01 08:59:10;;;;;;;2.75;0.80;;;27.80;49.40;;;;;;5092274;28;20401;-80
2023/09/01 09:01:37;;;;;;;2.33;1.17;;;27.40;49.30;;;;;;5092166;28;20024;-81
2023/09/01 09:04:06;;;;;;;2.80;1.13;;;27.10;49.10;;;;;;5092021;28;20028;-81
2023/09/01 09:06:37;;;;;;;2.20;0.90;;;26.90;50.30;;;;;;5087651;28;20035;-80
2023/09/01 09:09:14;;;;;;;4.93;1.30;;;26.70;51.00;;;;;;5071864;28;20047;-79
2023/09/01 09:11:53;;;;;;;1.25;0.80;;;26.50;50.90;;;;;;5071819;28;20482;-81
2023/09/01 09:14:19;;;;;;;4.82;1.02;;;26.50;51.10;;;;;;5071675;28;20028;-81
2023/09/01 09:16:55;;;;;;;4.13;0.60;;;26.40;51.80;;;;;;5071654;28;20592;-80
2023/09/01 09:19:22;;;;;;;2.90;0.90;;;26.30;52.00;;;;;;5071766;28;20576;-80
2023/09/01 09:21:48;;;;;;;1.95;0.73;;;26.20;52.40;;;;;;5087497;28;20031;-81
2023/09/01 09:24:14;;;;;;;4.95;0.70;;;26.10;52.60;;;;;;5092080;28;20028;-81
2023/09/01 09:26:39;;;;;;;1.70;0.88;;;25.90;53.30;;;;;;5091792;28;20453;-81
2023/09/01 09:29:07;;;;;;;1.75;0.80;;;25.70;54.20;;;;;;5091815;28;20028;-81
2023/09/01 09:31:37;;;;;;;2.38;0.98;;;25.60;54.40;;;;;;5090652;28;20028;-81
2023/09/01 09:34:20;;;;;;;2.22;0.80;;;25.60;55.00;;;;;;5091796;28;20062;-81
2023/09/01 09:36:47;;;;;;;1.38;0.65;;;25.50;55.80;;;;;;5091364;28;20549;-81
2023/09/01 09:39:27;;;;;;;1.35;0.85;;;25.50;56.20;;;;;;5091516;28;20024;-81
2023/09/01 09:41:54;;;;;;;5.45;0.82;;;25.50;56.80;;;;;;5091683;28;20067;-81
2023/09/01 09:44:36;;;;;;;1.73;0.70;;;25.50;56.40;;;;;;5090122;28;20047;-81
2023/09/01 09:47:10;;;;;;;8.48;1.05;;;25.70;56.30;;;;;;5091629;28;20028;-80
2023/09/01 09:49:39;;;;;;;2.38;1.13;;;25.70;56.90;;;;;;5091429;28;20020;-81
2023/09/01 09:52:08;;;;;;;5.07;1.05;;;25.70;56.80;;;;;;5091059;28;20064;-79
2023/09/01 09:54:37;;;;;;;2.67;1.33;;;25.80;56.20;;;;;;5089849;28;20028;-81
2023/09/01 09:57:06;;;;;;;4.28;1.00;;;25.80;56.40;;;;;;5091013;28;20133;-81
2023/09/01 10:00:10;;;;;;;1.35;0.75;;;26.00;55.80;;;;;;5091062;28;20408;-80
2023/09/01 10:02:59;;;;;;;2.28;1.08;;;26.10;55.30;;;;;;5089551;28;20036;-80
2023/09/01 10:05:28;;;;;;;3.55;1.20;;;26.10;55.90;;;;;;5091219;28;20595;-80
2023/09/01 10:07:55;;;;;;;5.35;1.17;;;26.00;55.70;;;;;;5090635;28;20451;-81
2023/09/01 10:10:22;;;;;;;2.15;1.15;;;26.00;56.50;;;;;;5089852;28;20032;-81
2023/09/01 10:12:47;;;;;;;2.35;1.02;;;25.80;57.00;;;;;;5090871;28;20473;-81
2023/09/01 10:15:15;;;;;;;2.47;1.20;;;25.70;56.90;;;;;;5089672;28;20086;-81
2023/09/01 10:17:42;;;;;;;3.80;1.25;;;25.70;56.60;;;;;;5091323;28;20484;-80
2023/09/01 10:20:09;;;;;;;3.40;1.42;;;25.70;56.50;;;;;;5091277;28;20111;-81
2023/09/01 10:22:41;;;;;;;1.83;1.02;;;25.90;57.30;;;;;;5090658;28;20054;-81
2023/09/01 10:25:19;;;;;;;2.15;1.00;;;26.30;57.60;;;;;;5090790;28;20396;-81
2023/09/01 10:28:14;;;;;;;3.33;1.20;;;26.60;56.70;;;;;;5090595;28;20396;-81
2023/09/01 10:30:41;;;;;;;5.05;1.00;;;26.80;56.10;;;;;;5089144;28;20449;-81
2023/09/01 10:33:11;;;;;;;2.13;0.90;;;26.90;55.30;;;;;;5090605;28;20582;-80
2023/09/01 10:35:42;;;;;;;1.45;0.95;;;26.90;55.50;;;;;;5091109;28;20016;-80
2023/09/01 10:38:18;;;;;;;4.28;1.38;;;27.10;55.60;;;;;;5083684;28;20036;-81
2023/09/01 10:40:44;;;;;;;;;;;27.10;55.80;;;;;;5080205;28;20020;-79
2023/09/01 10:43:11;;;;;;;2.58;0.90;;;27.10;53.90;;;;;;5085790;28;20040;-81
2023/09/01 10:45:37;;;;;;;4.47;1.02;;;27.00;55.00;;;;;;5096492;28;20027;-81
2023/09/01 10:48:04;;;;;;;4.85;1.13;;;27.10;54.90;;;;;;5097186;28;20024;-80
2023/09/01 10:50:34;;;;;;;3.30;1.30;;;27.10;54.10;;;;;;5090169;28;20024;-80
2023/09/01 10:53:29;;;;;;;3.10;1.55;;;27.00;54.30;;;;;;5090298;28;20461;-81
2023/09/01 10:56:17;;;;;;;4.57;0.93;;;26.90;55.00;;;;;;5090109;28;20038;-81
2023/09/01 10:58:47;;;;;;;3.05;1.40;;;27.00;56.50;;;;;;5089639;28;20111;-80
2023/09/01 11:01:28;;;;;;;1.50;0.93;;;27.00;55.80;;;;;;5089976;28;20600;-79
2023/09/01 11:03:56;;;;;;;6.90;1.30;;;27.30;54.80;;;;;;5089933;28;20106;-80
2023/09/01 11:06:23;;;;;;;3.80;1.33;;;27.20;54.60;;;;;;5089974;28;20028;-81
2023/09/01 11:09:00;;;;;;;3.63;1.40;;;27.30;54.90;;;;;;5089474;28;20492;-78
2023/09/01 11:11:27;;;;;;;1.77;1.08;;;27.30;54.40;;;;;;5089862;28;20024;-80
2023/09/01 11:13:54;;;;;;;4.32;1.20;;;27.10;52.60;;;;;;5089167;28;20028;-79
2023/09/01 11:16:20;;;;;;;5.03;0.93;;;27.00;54.50;;;;;;5088361;28;20064;-80
2023/09/01 11:18:57;;;;;;;3.30;1.05;;;27.10;55.70;;;;;;5089499;28;20123;-80
2023/09/01 11:21:24;;;;;;;1.65;1.10;;;27.10;55.60;;;;;;5089733;28;20060;-78
2023/09/01 11:23:55;;;;;;;2.65;0.90;;;27.20;54.30;;;;;;5088976;28;20020;-79
2023/09/01 11:26:21;;;;;;;1.83;0.85;;;27.10;53.60;;;;;;5089633;28;20024;-80
2023/09/01 11:28:47;;;;;;;1.45;0.80;;;27.20;54.60;;;;;;5089611;28;20388;-79
2023/09/01 11:31:12;;;;;;;2.22;1.00;;;27.20;55.10;;;;;;5089580;28;20028;-80
2023/09/01 11:33:38;;;;;;;5.45;1.20;;;27.20;54.50;;;;;;5087979;28;20023;-78
2023/09/01 11:36:09;;;;;;;1.75;0.80;;;27.30;54.50;;;;;;5089500;28;20039;-80
2023/09/01 11:38:35;;;;;;;1.85;0.90;;;27.40;54.00;;;;;;5089374;28;20534;-80
2023/09/01 11:41:03;;;;;;;2.70;0.82;;;27.30;53.50;;;;;;5089569;28;20028;-79
2023/09/01 11:43:29;;;;;;;4.70;0.80;;;27.30;54.50;;;;;;5089558;28;20039;-80
2023/09/01 11:45:55;;;;;;;2.00;0.70;;;27.30;54.50;;;;;;5088198;28;20016;-79
2023/09/01 11:48:28;;;;;;;2.10;0.90;;;27.40;53.10;;;;;;5077902;28;20028;-80
2023/09/01 11:50:59;;;;;;;2.60;0.85;;;27.30;51.80;;;;;;5069021;28;20027;-80
2023/09/01 11:53:26;;;;;;;1.33;0.80;;;27.30;52.40;;;;;;5069133;28;20033;-79
2023/09/01 11:55:58;;;;;;;2.13;0.68;;;27.20;52.20;;;;;;5069632;28;20048;-78
2023/09/01 11:58:33;;;;;;;5.30;1.00;;;27.10;51.20;;;;;;5069340;28;20120;-78
2023/09/01 12:01:12;;;;;;;2.42;1.00;;;27.10;51.50;;;;;;5080602;28;20162;-80
2023/09/01 12:03:38;;;;;;;2.63;0.95;;;27.10;52.00;;;;;;5068776;28;20035;-80
2023/09/01 12:06:15;;;;;;;2.25;0.98;;;27.00;52.80;;;;;;5067827;28;20029;-78
2023/09/01 12:08:40;;;;;;;1.92;0.95;;;26.90;52.50;;;;;;5069066;28;20504;-79
2023/09/01 12:11:06;;;;;;;2.80;0.90;;;26.70;52.10;;;;;;5067995;28;20035;-79
2023/09/01 12:13:32;;;;;;;8.75;1.13;;;26.60;52.30;;;;;;5069111;28;20078;-79
2023/09/01 12:16:03;;;;;;;2.35;1.15;;;26.50;52.70;;;;;;5084335;28;20052;-79
2023/09/01 12:18:33;;;;;;;1.95;0.90;;;26.50;53.90;;;;;;5068322;28;20082;-78
2023/09/01 12:20:59;;;;;;;6.18;0.85;;;26.60;52.90;;;;;;5075192;28;20066;-80
2023/09/01 12:23:26;;;;;;;2.13;0.63;;;26.60;51.10;;;;;;5088940;28;20107;-79
2023/09/01 12:25:52;;;;;;;2.80;1.27;;;26.60;52.10;;;;;;5087110;28;20027;-79
2023/09/01 12:28:17;;;;;;;3.20;1.00;;;26.70;52.90;;;;;;5090684;28;20028;-79
2023/09/01 12:30:43;;;;;;;7.22;1.30;;;26.80;53.50;;;;;;5092311;28;20611;-78
2023/09/01 12:33:09;;;;;;;3.35;1.13;;;26.80;53.00;;;;;;5092486;28;20528;-79
2023/09/01 12:35:34;;;;;;;2.50;0.98;;;26.90;52.30;;;;;;5092514;28;20034;-79
2023/09/01 12:38:00;;;;;;;3.60;1.00;;;27.00;52.40;;;;;;5092397;28;20035;-80
2023/09/01 12:40:25;;;;;;;2.10;0.95;;;27.00;52.30;;;;;;5091397;28;20457;-79
2023/09/01 12:42:51;;;;;;;3.97;0.82;;;27.00;51.90;;;;;;5092461;28;20032;-79
2023/09/01 12:45:17;;;;;;;3.40;1.10;;;27.00;51.00;;;;;;5093148;28;20445;-79
2023/09/01 12:47:42;;;;;;;5.35;1.20;;;27.00;50.80;;;;;;5092555;28;20543;-80
2023/09/01 12:50:08;;;;;;;5.95;0.90;;;26.90;50.70;;;;;;5092099;28;20499;-79
2023/09/01 12:52:34;;;;;;;4.38;1.08;;;26.90;51.10;;;;;;5092373;28;20153;-79
2023/09/01 12:54:59;;;;;;;5.60;1.55;;;26.80;51.30;;;;;;5092496;28;20036;-78